sensor_id;sensor_type;location;lat;lon;timestamp;temperature;humidity
3921;DHT22;1975;49.356;6.816;2023-03-01T00:01:46;3.50;99.90
3921;DHT22;1975;49.356;6.816;2023-03-01T00:04:11;3.50;99.90
3921;DHT22;1975;49.356;6.816;2023-03-01T00:06:37;3.50;99.90
3921;DHT22;1975;49.356;6.816;2023-03-01T00:09:03;3.50;99.90
3921;DHT22;1975;49.356;6.816;2023-03-01T00:11:29;3.50;99.90
3921;DHT22;1975;49.356;6.816;2023-03-01T00:13:55;3.50;99.90
3921;DHT22;1975;49.356;6.816;2023-03-01T00:16:29;3.40;99.90
3921;DHT22;1975;49.356;6.816;2023-03-01T00:18:55;3.40;99.90
3921;DHT22;1975;49.356;6.816;2023-03-01T00:21:21;3.40;99.90
3921;DHT22;1975;49.356;6.816;2023-03-01T00:23:47;3.40;99.90
3921;DHT22;1975;49.356;6.816;2023-03-01T00:26:14;3.40;99.90
3921;DHT22;1975;49.356;6.816;2023-03-01T00:28:39;3.40;99.90
3921;DHT22;1975;49.356;6.816;2023-03-01T00:31:06;3.40;99.90
3921;DHT22;1975;49.356;6.816;2023-03-01T00:33:31;3.40;99.90
3921;DHT22;1975;49.356;6.816;2023-03-01T00:36:00;3.40;99.90
3921;DHT22;1975;49.356;6.816;2023-03-01T00:38:26;3.40;99.90
3921;DHT22;1975;49.356;6.816;2023-03-01T00:40:51;3.40;99.90
3921;DHT22;1975;49.356;6.816;2023-03-01T00:43:17;3.40;99.90
3921;DHT22;1975;49.356;6.816;2023-03-01T00:45:42;3.40;99.90
3921;DHT22;1975;49.356;6.816;2023-03-01T00:48:08;3.40;99.90
3921;DHT22;1975;49.356;6.816;2023-03-01T00:50:33;3.40;99.90
3921;DHT22;1975;49.356;6.816;2023-03-01T00:52:59;3.40;99.90
3921;DHT22;1975;49.356;6.816;2023-03-01T00:55:24;3.40;99.90
3921;DHT22;1975;49.356;6.816;2023-03-01T00:57:50;3.40;99.90
3921;DHT22;1975;49.356;6.816;2023-03-01T01:00:16;3.40;99.90
3921;DHT22;1975;49.356;6.816;2023-03-01T01:02:41;3.40;99.90
3921;DHT22;1975;49.356;6.816;2023-03-01T01:05:07;3.40;99.90
3921;DHT22;1975;49.356;6.816;2023-03-01T01:07:33;3.40;99.90
3921;DHT22;1975;49.356;6.816;2023-03-01T01:09:58;3.40;99.90
3921;DHT22;1975;49.356;6.816;2023-03-01T01:12:23;3.40;99.90
3921;DHT22;1975;49.356;6.816;2023-03-01T01:14:49;3.40;99.90
3921;DHT22;1975;49.356;6.816;2023-03-01T01:17:14;3.40;99.90
3921;DHT22;1975;49.356;6.816;2023-03-01T01:19:40;3.40;99.90
3921;DHT22;1975;49.356;6.816;2023-03-01T01:22:05;3.40;99.90
3921;DHT22;1975;49.356;6.816;2023-03-01T01:24:31;3.30;99.90
3921;DHT22;1975;49.356;6.816;2023-03-01T01:26:57;3.30;99.90
3921;DHT22;1975;49.356;6.816;2023-03-01T01:29:22;3.30;99.90
3921;DHT22;1975;49.356;6.816;2023-03-01T01:31:48;3.30;99.90
3921;DHT22;1975;49.356;6.816;2023-03-01T01:34:14;3.30;99.90
3921;DHT22;1975;49.356;6.816;2023-03-01T01:36:40;3.30;99.90
3921;DHT22;1975;49.356;6.816;2023-03-01T01:39:06;3.30;99.90
3921;DHT22;1975;49.356;6.816;2023-03-01T01:41:32;3.30;99.90
3921;DHT22;1975;49.356;6.816;2023-03-01T01:46:49;3.30;99.90
3921;DHT22;1975;49.356;6.816;2023-03-01T01:52:04;3.20;99.90
3921;DHT22;1975;49.356;6.816;2023-03-01T01:54:33;3.30;99.90
3921;DHT22;1975;49.356;6.816;2023-03-01T01:57:03;3.30;99.90
3921;DHT22;1975;49.356;6.816;2023-03-01T01:59:32;3.20;99.90
3921;DHT22;1975;49.356;6.816;2023-03-01T02:01:58;3.20;99.90
3921;DHT22;1975;49.356;6.816;2023-03-01T02:04:24;3.20;99.90
3921;DHT22;1975;49.356;6.816;2023-03-01T02:09:49;3.20;99.90
3921;DHT22;1975;49.356;6.816;2023-03-01T02:12:16;3.20;99.90
3921;DHT22;1975;49.356;6.816;2023-03-01T02:14:42;3.20;99.90
3921;DHT22;1975;49.356;6.816;2023-03-01T02:17:08;3.20;99.90
3921;DHT22;1975;49.356;6.816;2023-03-01T02:22:06;3.20;99.90
3921;DHT22;1975;49.356;6.816;2023-03-01T02:27:17;3.20;99.90
3921;DHT22;1975;49.356;6.816;2023-03-01T02:29:47;3.10;99.90
3921;DHT22;1975;49.356;6.816;2023-03-01T02:32:12;3.10;99.90
3921;DHT22;1975;49.356;6.816;2023-03-01T02:34:38;3.20;99.90
3921;DHT22;1975;49.356;6.816;2023-03-01T02:37:07;3.10;99.90
3921;DHT22;1975;49.356;6.816;2023-03-01T02:39:37;3.10;99.90
3921;DHT22;1975;49.356;6.816;2023-03-01T02:42:07;3.10;99.90
3921;DHT22;1975;49.356;6.816;2023-03-01T02:44:34;3.10;99.90
3921;DHT22;1975;49.356;6.816;2023-03-01T02:47:01;3.10;99.90
3921;DHT22;1975;49.356;6.816;2023-03-01T02:49:31;3.10;99.90
3921;DHT22;1975;49.356;6.816;2023-03-01T02:57:18;3.10;99.90
3921;DHT22;1975;49.356;6.816;2023-03-01T02:59:44;3.10;99.90
3921;DHT22;1975;49.356;6.816;2023-03-01T03:02:20;3.10;99.90
3921;DHT22;1975;49.356;6.816;2023-03-01T03:07:34;3.10;99.90
3921;DHT22;1975;49.356;6.816;2023-03-01T03:10:00;3.10;99.90
3921;DHT22;1975;49.356;6.816;2023-03-01T03:12:25;3.10;99.90
3921;DHT22;1975;49.356;6.816;2023-03-01T03:14:51;3.10;99.90
3921;DHT22;1975;49.356;6.816;2023-03-01T03:17:16;3.10;99.90
3921;DHT22;1975;49.356;6.816;2023-03-01T03:19:41;3.10;99.90
3921;DHT22;1975;49.356;6.816;2023-03-01T03:22:13;3.10;99.90
3921;DHT22;1975;49.356;6.816;2023-03-01T03:24:38;3.10;99.90
3921;DHT22;1975;49.356;6.816;2023-03-01T03:27:04;3.10;99.90
3921;DHT22;1975;49.356;6.816;2023-03-01T03:29:30;3.10;99.90
3921;DHT22;1975;49.356;6.816;2023-03-01T03:31:55;3.10;99.90
3921;DHT22;1975;49.356;6.816;2023-03-01T03:34:21;3.10;99.90
3921;DHT22;1975;49.356;6.816;2023-03-01T03:36:46;3.10;99.90
3921;DHT22;1975;49.356;6.816;2023-03-01T03:39:12;3.10;99.90
3921;DHT22;1975;49.356;6.816;2023-03-01T03:41:37;3.10;99.90
3921;DHT22;1975;49.356;6.816;2023-03-01T03:44:03;3.00;99.90
3921;DHT22;1975;49.356;6.816;2023-03-01T03:46:28;3.00;99.90
3921;DHT22;1975;49.356;6.816;2023-03-01T03:48:54;3.10;99.90
3921;DHT22;1975;49.356;6.816;2023-03-01T03:51:19;3.10;99.90
3921;DHT22;1975;49.356;6.816;2023-03-01T03:53:45;3.00;99.90
3921;DHT22;1975;49.356;6.816;2023-03-01T03:56:11;3.00;99.90
3921;DHT22;1975;49.356;6.816;2023-03-01T03:58:37;3.00;99.90
3921;DHT22;1975;49.356;6.816;2023-03-01T04:01:02;3.00;99.90
3921;DHT22;1975;49.356;6.816;2023-03-01T04:03:29;3.00;99.90
3921;DHT22;1975;49.356;6.816;2023-03-01T04:05:56;3.00;99.90
3921;DHT22;1975;49.356;6.816;2023-03-01T04:08:22;3.00;99.90
3921;DHT22;1975;49.356;6.816;2023-03-01T04:10:49;3.00;99.90
3921;DHT22;1975;49.356;6.816;2023-03-01T04:13:16;3.00;99.90
3921;DHT22;1975;49.356;6.816;2023-03-01T04:15:42;3.00;99.90
3921;DHT22;1975;49.356;6.816;2023-03-01T04:18:12;3.00;99.90
3921;DHT22;1975;49.356;6.816;2023-03-01T04:20:37;3.00;99.90
3921;DHT22;1975;49.356;6.816;2023-03-01T04:23:06;2.90;99.90
3921;DHT22;1975;49.356;6.816;2023-03-01T04:25:49;3.00;99.90
3921;DHT22;1975;49.356;6.816;2023-03-01T04:28:19;3.00;99.90
3921;DHT22;1975;49.356;6.816;2023-03-01T04:30:44;3.00;99.90
3921;DHT22;1975;49.356;6.816;2023-03-01T04:33:10;2.90;99.90
3921;DHT22;1975;49.356;6.816;2023-03-01T04:35:36;2.90;99.90
3921;DHT22;1975;49.356;6.816;2023-03-01T04:38:02;2.90;99.90
3921;DHT22;1975;49.356;6.816;2023-03-01T04:40:28;2.90;99.90
3921;DHT22;1975;49.356;6.816;2023-03-01T04:42:54;2.90;99.90
3921;DHT22;1975;49.356;6.816;2023-03-01T04:45:19;2.90;99.90
3921;DHT22;1975;49.356;6.816;2023-03-01T04:47:45;2.90;99.90
3921;DHT22;1975;49.356;6.816;2023-03-01T04:50:12;2.90;99.90
3921;DHT22;1975;49.356;6.816;2023-03-01T04:52:38;2.90;99.90
3921;DHT22;1975;49.356;6.816;2023-03-01T04:55:04;2.90;99.90
3921;DHT22;1975;49.356;6.816;2023-03-01T04:57:30;2.80;99.90
3921;DHT22;1975;49.356;6.816;2023-03-01T04:59:55;2.80;99.90
3921;DHT22;1975;49.356;6.816;2023-03-01T05:02:20;2.80;99.90
3921;DHT22;1975;49.356;6.816;2023-03-01T05:04:46;2.80;99.90
3921;DHT22;1975;49.356;6.816;2023-03-01T05:07:12;2.80;99.90
3921;DHT22;1975;49.356;6.816;2023-03-01T05:09:38;2.80;99.90
3921;DHT22;1975;49.356;6.816;2023-03-01T05:12:04;2.80;99.90
3921;DHT22;1975;49.356;6.816;2023-03-01T05:14:29;2.80;99.90
3921;DHT22;1975;49.356;6.816;2023-03-01T05:16:55;2.80;99.90
3921;DHT22;1975;49.356;6.816;2023-03-01T05:19:20;2.80;99.90
3921;DHT22;1975;49.356;6.816;2023-03-01T05:21:47;2.80;99.90
3921;DHT22;1975;49.356;6.816;2023-03-01T05:24:32;2.80;99.90
3921;DHT22;1975;49.356;6.816;2023-03-01T05:26:58;2.80;99.90
3921;DHT22;1975;49.356;6.816;2023-03-01T05:29:25;2.80;99.90
3921;DHT22;1975;49.356;6.816;2023-03-01T05:31:54;2.70;99.90
3921;DHT22;1975;49.356;6.816;2023-03-01T05:34:30;2.80;99.90
3921;DHT22;1975;49.356;6.816;2023-03-01T05:36:56;2.80;99.90
3921;DHT22;1975;49.356;6.816;2023-03-01T05:39:23;2.80;99.90
3921;DHT22;1975;49.356;6.816;2023-03-01T05:41:52;2.80;99.90
3921;DHT22;1975;49.356;6.816;2023-03-01T05:44:18;2.70;99.90
3921;DHT22;1975;49.356;6.816;2023-03-01T05:46:43;2.80;99.90
3921;DHT22;1975;49.356;6.816;2023-03-01T05:49:10;2.70;99.90
3921;DHT22;1975;49.356;6.816;2023-03-01T05:51:35;2.80;99.90
3921;DHT22;1975;49.356;6.816;2023-03-01T05:54:01;2.80;99.90
3921;DHT22;1975;49.356;6.816;2023-03-01T05:56:26;2.70;99.90
3921;DHT22;1975;49.356;6.816;2023-03-01T05:58:52;2.70;99.90
3921;DHT22;1975;49.356;6.816;2023-03-01T06:01:17;2.80;99.90
3921;DHT22;1975;49.356;6.816;2023-03-01T06:03:43;2.70;99.90
3921;DHT22;1975;49.356;6.816;2023-03-01T06:06:08;2.70;99.90
3921;DHT22;1975;49.356;6.816;2023-03-01T06:08:34;2.70;99.90
3921;DHT22;1975;49.356;6.816;2023-03-01T06:10:59;2.70;99.90
3921;DHT22;1975;49.356;6.816;2023-03-01T06:13:25;2.80;99.90
3921;DHT22;1975;49.356;6.816;2023-03-01T06:15:50;2.70;99.90
3921;DHT22;1975;49.356;6.816;2023-03-01T06:18:16;2.70;99.90
3921;DHT22;1975;49.356;6.816;2023-03-01T06:20:41;2.70;99.90
3921;DHT22;1975;49.356;6.816;2023-03-01T06:23:07;2.70;99.90
3921;DHT22;1975;49.356;6.816;2023-03-01T06:25:32;2.70;99.90
3921;DHT22;1975;49.356;6.816;2023-03-01T06:27:58;2.70;99.90
3921;DHT22;1975;49.356;6.816;2023-03-01T06:30:24;2.70;99.90
3921;DHT22;1975;49.356;6.816;2023-03-01T06:32:50;2.70;99.90
3921;DHT22;1975;49.356;6.816;2023-03-01T06:35:16;2.70;99.90
3921;DHT22;1975;49.356;6.816;2023-03-01T06:37:45;2.70;99.90
3921;DHT22;1975;49.356;6.816;2023-03-01T06:40:11;2.70;99.90
3921;DHT22;1975;49.356;6.816;2023-03-01T06:42:40;2.60;99.90
3921;DHT22;1975;49.356;6.816;2023-03-01T06:45:06;2.70;99.90
3921;DHT22;1975;49.356;6.816;2023-03-01T06:47:32;2.70;99.90
3921;DHT22;1975;49.356;6.816;2023-03-01T06:49:58;2.70;99.90
3921;DHT22;1975;49.356;6.816;2023-03-01T06:52:24;2.70;99.90
3921;DHT22;1975;49.356;6.816;2023-03-01T06:54:49;2.70;99.90
3921;DHT22;1975;49.356;6.816;2023-03-01T06:57:15;2.70;99.90
3921;DHT22;1975;49.356;6.816;2023-03-01T06:59:40;2.70;99.90
3921;DHT22;1975;49.356;6.816;2023-03-01T07:02:06;2.70;99.90
3921;DHT22;1975;49.356;6.816;2023-03-01T07:04:31;2.70;99.90
3921;DHT22;1975;49.356;6.816;2023-03-01T07:06:57;2.70;99.90
3921;DHT22;1975;49.356;6.816;2023-03-01T07:09:23;2.70;99.90
3921;DHT22;1975;49.356;6.816;2023-03-01T07:11:48;2.70;99.90
3921;DHT22;1975;49.356;6.816;2023-03-01T07:14:14;2.70;99.90
3921;DHT22;1975;49.356;6.816;2023-03-01T07:16:39;2.80;99.90
3921;DHT22;1975;49.356;6.816;2023-03-01T07:19:05;2.70;99.90
3921;DHT22;1975;49.356;6.816;2023-03-01T07:21:31;2.70;99.90
3921;DHT22;1975;49.356;6.816;2023-03-01T07:23:56;2.80;99.90
3921;DHT22;1975;49.356;6.816;2023-03-01T07:26:22;2.70;99.90
3921;DHT22;1975;49.356;6.816;2023-03-01T07:28:47;2.70;99.90
3921;DHT22;1975;49.356;6.816;2023-03-01T07:31:13;2.80;99.90
3921;DHT22;1975;49.356;6.816;2023-03-01T07:33:38;2.70;99.90
3921;DHT22;1975;49.356;6.816;2023-03-01T07:36:04;2.80;99.90
3921;DHT22;1975;49.356;6.816;2023-03-01T07:38:30;2.70;99.90
3921;DHT22;1975;49.356;6.816;2023-03-01T07:40:59;2.70;99.90
3921;DHT22;1975;49.356;6.816;2023-03-01T07:43:25;2.70;99.90
3921;DHT22;1975;49.356;6.816;2023-03-01T07:45:51;2.70;99.90
3921;DHT22;1975;49.356;6.816;2023-03-01T07:48:17;2.70;99.90
3921;DHT22;1975;49.356;6.816;2023-03-01T07:50:42;2.70;99.90
3921;DHT22;1975;49.356;6.816;2023-03-01T07:53:08;2.70;99.90
3921;DHT22;1975;49.356;6.816;2023-03-01T07:55:34;2.70;99.90
3921;DHT22;1975;49.356;6.816;2023-03-01T07:57:59;2.70;99.90
3921;DHT22;1975;49.356;6.816;2023-03-01T08:00:25;2.70;99.90
3921;DHT22;1975;49.356;6.816;2023-03-01T08:02:50;2.70;99.90
3921;DHT22;1975;49.356;6.816;2023-03-01T08:05:16;2.70;99.90
3921;DHT22;1975;49.356;6.816;2023-03-01T08:07:41;2.70;99.90
3921;DHT22;1975;49.356;6.816;2023-03-01T08:10:07;2.70;99.90
3921;DHT22;1975;49.356;6.816;2023-03-01T08:12:33;2.70;99.90
3921;DHT22;1975;49.356;6.816;2023-03-01T08:14:58;2.80;99.90
3921;DHT22;1975;49.356;6.816;2023-03-01T08:17:23;2.70;99.90
3921;DHT22;1975;49.356;6.816;2023-03-01T08:19:49;2.80;99.90
3921;DHT22;1975;49.356;6.816;2023-03-01T08:22:14;2.80;99.90
3921;DHT22;1975;49.356;6.816;2023-03-01T08:24:40;2.80;99.90
3921;DHT22;1975;49.356;6.816;2023-03-01T08:27:05;2.80;99.90
3921;DHT22;1975;49.356;6.816;2023-03-01T08:29:31;2.80;99.90
3921;DHT22;1975;49.356;6.816;2023-03-01T08:31:57;2.80;99.90
3921;DHT22;1975;49.356;6.816;2023-03-01T08:34:22;2.80;99.90
3921;DHT22;1975;49.356;6.816;2023-03-01T08:36:48;2.80;99.90
3921;DHT22;1975;49.356;6.816;2023-03-01T08:39:16;2.80;99.90
3921;DHT22;1975;49.356;6.816;2023-03-01T08:41:41;2.80;99.90
3921;DHT22;1975;49.356;6.816;2023-03-01T08:44:07;2.80;99.90
3921;DHT22;1975;49.356;6.816;2023-03-01T08:46:34;2.80;99.90
3921;DHT22;1975;49.356;6.816;2023-03-01T08:49:04;2.80;99.90
3921;DHT22;1975;49.356;6.816;2023-03-01T08:51:31;2.80;99.90
3921;DHT22;1975;49.356;6.816;2023-03-01T08:54:21;2.90;99.90
3921;DHT22;1975;49.356;6.816;2023-03-01T08:56:47;2.90;99.90
3921;DHT22;1975;49.356;6.816;2023-03-01T08:59:13;2.90;99.90
3921;DHT22;1975;49.356;6.816;2023-03-01T09:01:39;2.90;99.90
3921;DHT22;1975;49.356;6.816;2023-03-01T09:04:05;2.90;99.90
3921;DHT22;1975;49.356;6.816;2023-03-01T09:06:32;2.90;99.90
3921;DHT22;1975;49.356;6.816;2023-03-01T09:08:58;3.00;99.90
3921;DHT22;1975;49.356;6.816;2023-03-01T09:11:23;3.00;99.90
3921;DHT22;1975;49.356;6.816;2023-03-01T09:13:49;3.00;99.90
3921;DHT22;1975;49.356;6.816;2023-03-01T09:16:15;3.00;99.90
3921;DHT22;1975;49.356;6.816;2023-03-01T09:18:41;3.00;99.90
3921;DHT22;1975;49.356;6.816;2023-03-01T09:21:09;3.00;99.90
3921;DHT22;1975;49.356;6.816;2023-03-01T09:23:35;3.00;99.90
3921;DHT22;1975;49.356;6.816;2023-03-01T09:26:05;3.00;99.90
3921;DHT22;1975;49.356;6.816;2023-03-01T09:28:31;3.10;99.90
3921;DHT22;1975;49.356;6.816;2023-03-01T09:31:00;3.10;99.90
3921;DHT22;1975;49.356;6.816;2023-03-01T09:33:26;3.10;99.90
3921;DHT22;1975;49.356;6.816;2023-03-01T09:36:05;3.10;99.90
3921;DHT22;1975;49.356;6.816;2023-03-01T09:38:32;3.10;99.90
3921;DHT22;1975;49.356;6.816;2023-03-01T09:40:58;3.10;99.90
3921;DHT22;1975;49.356;6.816;2023-03-01T09:46:09;3.10;99.90
3921;DHT22;1975;49.356;6.816;2023-03-01T09:48:56;3.10;99.90
3921;DHT22;1975;49.356;6.816;2023-03-01T09:51:27;3.20;99.90
3921;DHT22;1975;49.356;6.816;2023-03-01T09:53:55;3.20;99.90
3921;DHT22;1975;49.356;6.816;2023-03-01T09:56:41;3.20;99.90
3921;DHT22;1975;49.356;6.816;2023-03-01T09:59:29;3.20;99.90
3921;DHT22;1975;49.356;6.816;2023-03-01T10:02:04;3.20;99.90
3921;DHT22;1975;49.356;6.816;2023-03-01T10:09:53;3.20;99.90
3921;DHT22;1975;49.356;6.816;2023-03-01T10:12:31;3.20;99.90
3921;DHT22;1975;49.356;6.816;2023-03-01T10:15:09;3.20;99.90
3921;DHT22;1975;49.356;6.816;2023-03-01T10:17:45;3.20;99.90
3921;DHT22;1975;49.356;6.816;2023-03-01T10:20:20;3.30;99.90
3921;DHT22;1975;49.356;6.816;2023-03-01T10:22:46;3.30;99.90
3921;DHT22;1975;49.356;6.816;2023-03-01T10:25:17;3.30;99.90
3921;DHT22;1975;49.356;6.816;2023-03-01T10:27:49;3.30;99.90
3921;DHT22;1975;49.356;6.816;2023-03-01T10:30:18;3.30;99.90
3921;DHT22;1975;49.356;6.816;2023-03-01T10:32:45;3.30;99.90
3921;DHT22;1975;49.356;6.816;2023-03-01T10:35:21;3.30;99.90
3921;DHT22;1975;49.356;6.816;2023-03-01T10:38:06;3.30;99.90
3921;DHT22;1975;49.356;6.816;2023-03-01T10:40:33;3.30;99.90
3921;DHT22;1975;49.356;6.816;2023-03-01T10:43:00;3.30;99.90
3921;DHT22;1975;49.356;6.816;2023-03-01T10:48:05;3.30;99.90
3921;DHT22;1975;49.356;6.816;2023-03-01T10:50:31;3.40;99.90
3921;DHT22;1975;49.356;6.816;2023-03-01T10:52:58;3.30;99.90
3921;DHT22;1975;49.356;6.816;2023-03-01T11:01:01;3.40;99.90
3921;DHT22;1975;49.356;6.816;2023-03-01T11:03:28;3.40;99.90
3921;DHT22;1975;49.356;6.816;2023-03-01T11:08:29;3.40;99.90
3921;DHT22;1975;49.356;6.816;2023-03-01T11:11:03;3.40;99.90
3921;DHT22;1975;49.356;6.816;2023-03-01T11:13:29;3.40;99.90
3921;DHT22;1975;49.356;6.816;2023-03-01T11:15:59;3.40;99.90
3921;DHT22;1975;49.356;6.816;2023-03-01T11:18:24;3.40;99.90
3921;DHT22;1975;49.356;6.816;2023-03-01T11:20:51;3.40;99.90
3921;DHT22;1975;49.356;6.816;2023-03-01T11:23:18;3.40;99.90
3921;DHT22;1975;49.356;6.816;2023-03-01T11:25:46;3.40;99.90
3921;DHT22;1975;49.356;6.816;2023-03-01T11:28:16;3.40;99.90
3921;DHT22;1975;49.356;6.816;2023-03-01T11:35:37;3.40;99.90
3921;DHT22;1975;49.356;6.816;2023-03-01T11:38:27;3.40;99.90
3921;DHT22;1975;49.356;6.816;2023-03-01T11:48:56;3.50;99.90
3921;DHT22;1975;49.356;6.816;2023-03-01T11:51:25;3.40;99.90
3921;DHT22;1975;49.356;6.816;2023-03-01T11:56:28;3.50;99.90
3921;DHT22;1975;49.356;6.816;2023-03-01T12:04:05;3.50;99.90
3921;DHT22;1975;49.356;6.816;2023-03-01T12:11:50;3.50;99.90
3921;DHT22;1975;49.356;6.816;2023-03-01T12:19:18;3.50;99.90
3921;DHT22;1975;49.356;6.816;2023-03-01T12:24:41;3.50;99.90
3921;DHT22;1975;49.356;6.816;2023-03-01T12:27:14;3.50;99.90
3921;DHT22;1975;49.356;6.816;2023-03-01T12:29:56;3.60;99.90
3921;DHT22;1975;49.356;6.816;2023-03-01T12:35:05;3.60;99.90
3921;DHT22;1975;49.356;6.816;2023-03-01T12:37:54;3.60;99.90
3921;DHT22;1975;49.356;6.816;2023-03-01T12:40:33;3.60;99.90
3921;DHT22;1975;49.356;6.816;2023-03-01T12:45:54;3.60;99.90
3921;DHT22;1975;49.356;6.816;2023-03-01T12:50:52;3.60;99.90
3921;DHT22;1975;49.356;6.816;2023-03-01T12:55:50;3.60;99.90
3921;DHT22;1975;49.356;6.816;2023-03-01T13:08:48;3.70;99.90
3921;DHT22;1975;49.356;6.816;2023-03-01T13:11:23;3.70;99.90
3921;DHT22;1975;49.356;6.816;2023-03-01T13:13:49;3.70;99.90
3921;DHT22;1975;49.356;6.816;2023-03-01T13:19:07;3.70;99.90
3921;DHT22;1975;49.356;6.816;2023-03-01T13:21:34;3.70;99.90
3921;DHT22;1975;49.356;6.816;2023-03-01T13:23:59;3.70;99.90
3921;DHT22;1975;49.356;6.816;2023-03-01T13:26:25;3.70;99.90
3921;DHT22;1975;49.356;6.816;2023-03-01T13:28:51;3.70;99.90
3921;DHT22;1975;49.356;6.816;2023-03-01T13:33:46;3.80;99.90
3921;DHT22;1975;49.356;6.816;2023-03-01T13:44:16;3.80;99.90
3921;DHT22;1975;49.356;6.816;2023-03-01T13:46:45;3.80;99.90
3921;DHT22;1975;49.356;6.816;2023-03-01T13:49:14;3.80;99.90
3921;DHT22;1975;49.356;6.816;2023-03-01T13:51:41;3.80;99.90
3921;DHT22;1975;49.356;6.816;2023-03-01T13:54:09;3.80;99.90
3921;DHT22;1975;49.356;6.816;2023-03-01T13:56:36;3.80;99.90
3921;DHT22;1975;49.356;6.816;2023-03-01T13:59:04;3.80;99.90
3921;DHT22;1975;49.356;6.816;2023-03-01T14:01:34;3.90;99.90
3921;DHT22;1975;49.356;6.816;2023-03-01T14:04:01;3.90;99.90
3921;DHT22;1975;49.356;6.816;2023-03-01T14:06:30;3.90;99.90
3921;DHT22;1975;49.356;6.816;2023-03-01T14:09:05;3.90;99.90
3921;DHT22;1975;49.356;6.816;2023-03-01T14:19:19;3.90;99.90
3921;DHT22;1975;49.356;6.816;2023-03-01T14:21:46;3.90;99.90
3921;DHT22;1975;49.356;6.816;2023-03-01T14:24:21;4.00;99.90
3921;DHT22;1975;49.356;6.816;2023-03-01T14:26:48;4.00;99.90
3921;DHT22;1975;49.356;6.816;2023-03-01T14:29:24;4.00;99.90
3921;DHT22;1975;49.356;6.816;2023-03-01T14:31:50;4.00;99.90
3921;DHT22;1975;49.356;6.816;2023-03-01T14:34:20;4.00;99.90
3921;DHT22;1975;49.356;6.816;2023-03-01T14:36:46;4.00;99.90
3921;DHT22;1975;49.356;6.816;2023-03-01T14:39:23;4.10;99.90
3921;DHT22;1975;49.356;6.816;2023-03-01T14:41:50;4.10;99.90
3921;DHT22;1975;49.356;6.816;2023-03-01T14:44:18;4.10;99.90
3921;DHT22;1975;49.356;6.816;2023-03-01T14:46:44;4.10;99.90
3921;DHT22;1975;49.356;6.816;2023-03-01T14:49:11;4.20;99.90
3921;DHT22;1975;49.356;6.816;2023-03-01T14:51:38;4.20;99.90
3921;DHT22;1975;49.356;6.816;2023-03-01T14:54:10;4.20;99.90
3921;DHT22;1975;49.356;6.816;2023-03-01T14:56:44;4.20;99.90
3921;DHT22;1975;49.356;6.816;2023-03-01T14:59:10;4.20;99.90
3921;DHT22;1975;49.356;6.816;2023-03-01T15:01:36;4.20;99.90
3921;DHT22;1975;49.356;6.816;2023-03-01T15:04:01;4.30;99.90
3921;DHT22;1975;49.356;6.816;2023-03-01T15:06:27;4.30;99.90
3921;DHT22;1975;49.356;6.816;2023-03-01T15:08:53;4.30;99.90
3921;DHT22;1975;49.356;6.816;2023-03-01T15:11:21;4.30;99.90
3921;DHT22;1975;49.356;6.816;2023-03-01T15:13:48;4.30;99.90
3921;DHT22;1975;49.356;6.816;2023-03-01T15:16:18;4.30;99.90
3921;DHT22;1975;49.356;6.816;2023-03-01T15:18:45;4.30;99.90
3921;DHT22;1975;49.356;6.816;2023-03-01T15:21:18;4.40;99.90
3921;DHT22;1975;49.356;6.816;2023-03-01T15:23:57;4.40;99.90
3921;DHT22;1975;49.356;6.816;2023-03-01T15:26:30;4.40;99.90
3921;DHT22;1975;49.356;6.816;2023-03-01T15:28:57;4.50;99.90
3921;DHT22;1975;49.356;6.816;2023-03-01T15:31:25;4.50;99.90
3921;DHT22;1975;49.356;6.816;2023-03-01T15:33:51;4.50;99.90
3921;DHT22;1975;49.356;6.816;2023-03-01T15:38:55;4.60;99.90
3921;DHT22;1975;49.356;6.816;2023-03-01T15:43:47;6.30;99.90
3921;DHT22;1975;49.356;6.816;2023-03-01T15:46:33;6.20;99.90
3921;DHT22;1975;49.356;6.816;2023-03-01T15:49:03;6.10;99.90
3921;DHT22;1975;49.356;6.816;2023-03-01T15:51:34;5.80;99.90
3921;DHT22;1975;49.356;6.816;2023-03-01T15:54:02;5.60;99.90
3921;DHT22;1975;49.356;6.816;2023-03-01T15:56:28;5.50;99.90
3921;DHT22;1975;49.356;6.816;2023-03-01T15:58:57;5.40;99.90
3921;DHT22;1975;49.356;6.816;2023-03-01T16:01:22;5.40;99.90
3921;DHT22;1975;49.356;6.816;2023-03-01T16:03:48;5.30;99.90
3921;DHT22;1975;49.356;6.816;2023-03-01T16:06:13;5.30;99.90
3921;DHT22;1975;49.356;6.816;2023-03-01T16:08:39;5.30;99.90
3921;DHT22;1975;49.356;6.816;2023-03-01T16:11:08;5.30;99.90
3921;DHT22;1975;49.356;6.816;2023-03-01T16:13:36;5.30;99.90
3921;DHT22;1975;49.356;6.816;2023-03-01T16:16:01;5.30;99.90
3921;DHT22;1975;49.356;6.816;2023-03-01T16:18:27;5.30;99.90
3921;DHT22;1975;49.356;6.816;2023-03-01T16:20:52;5.30;99.90
3921;DHT22;1975;49.356;6.816;2023-03-01T16:23:19;5.30;99.90
3921;DHT22;1975;49.356;6.816;2023-03-01T16:25:44;5.30;99.90
3921;DHT22;1975;49.356;6.816;2023-03-01T16:28:10;5.30;99.90
3921;DHT22;1975;49.356;6.816;2023-03-01T16:30:39;5.30;99.90
3921;DHT22;1975;49.356;6.816;2023-03-01T16:33:04;5.30;99.90
3921;DHT22;1975;49.356;6.816;2023-03-01T16:35:34;5.30;99.90
3921;DHT22;1975;49.356;6.816;2023-03-01T16:38:04;5.30;99.90
3921;DHT22;1975;49.356;6.816;2023-03-01T16:40:29;5.40;99.90
3921;DHT22;1975;49.356;6.816;2023-03-01T16:42:55;5.40;99.90
3921;DHT22;1975;49.356;6.816;2023-03-01T16:45:24;5.40;99.90
3921;DHT22;1975;49.356;6.816;2023-03-01T16:47:50;5.40;99.90
3921;DHT22;1975;49.356;6.816;2023-03-01T16:50:15;5.40;99.90
3921;DHT22;1975;49.356;6.816;2023-03-01T16:52:41;5.40;99.90
3921;DHT22;1975;49.356;6.816;2023-03-01T16:55:07;5.40;99.90
3921;DHT22;1975;49.356;6.816;2023-03-01T16:57:35;5.30;99.90
3921;DHT22;1975;49.356;6.816;2023-03-01T17:00:00;5.30;99.90
3921;DHT22;1975;49.356;6.816;2023-03-01T17:02:33;5.30;99.90
3921;DHT22;1975;49.356;6.816;2023-03-01T17:04:59;5.30;99.90
3921;DHT22;1975;49.356;6.816;2023-03-01T17:07:24;5.30;99.90
3921;DHT22;1975;49.356;6.816;2023-03-01T17:09:50;5.30;99.90
3921;DHT22;1975;49.356;6.816;2023-03-01T17:12:15;5.20;99.90
3921;DHT22;1975;49.356;6.816;2023-03-01T17:14:42;5.30;99.90
3921;DHT22;1975;49.356;6.816;2023-03-01T17:17:08;5.30;99.90
3921;DHT22;1975;49.356;6.816;2023-03-01T17:19:33;5.30;99.90
3921;DHT22;1975;49.356;6.816;2023-03-01T17:22:03;5.30;99.90
3921;DHT22;1975;49.356;6.816;2023-03-01T17:24:31;5.40;99.90
3921;DHT22;1975;49.356;6.816;2023-03-01T17:26:57;5.30;99.90
3921;DHT22;1975;49.356;6.816;2023-03-01T17:29:22;5.30;99.90
3921;DHT22;1975;49.356;6.816;2023-03-01T17:31:48;5.30;99.90
3921;DHT22;1975;49.356;6.816;2023-03-01T17:34:13;5.30;99.90
3921;DHT22;1975;49.356;6.816;2023-03-01T17:36:40;5.30;99.90
3921;DHT22;1975;49.356;6.816;2023-03-01T17:39:09;5.30;99.90
3921;DHT22;1975;49.356;6.816;2023-03-01T17:41:34;5.30;99.90
3921;DHT22;1975;49.356;6.816;2023-03-01T17:44:00;5.30;99.90
3921;DHT22;1975;49.356;6.816;2023-03-01T17:46:25;5.30;99.90
3921;DHT22;1975;49.356;6.816;2023-03-01T17:48:51;5.30;99.90
3921;DHT22;1975;49.356;6.816;2023-03-01T17:51:17;5.20;99.90
3921;DHT22;1975;49.356;6.816;2023-03-01T17:53:43;5.20;99.90
3921;DHT22;1975;49.356;6.816;2023-03-01T17:56:08;5.20;99.90
3921;DHT22;1975;49.356;6.816;2023-03-01T17:58:34;5.20;99.90
3921;DHT22;1975;49.356;6.816;2023-03-01T18:01:16;5.20;99.90
3921;DHT22;1975;49.356;6.816;2023-03-01T18:03:42;5.20;99.90
3921;DHT22;1975;49.356;6.816;2023-03-01T18:06:13;5.20;99.90
3921;DHT22;1975;49.356;6.816;2023-03-01T18:08:39;5.20;99.90
3921;DHT22;1975;49.356;6.816;2023-03-01T18:11:04;5.10;99.90
3921;DHT22;1975;49.356;6.816;2023-03-01T18:13:30;5.10;99.90
3921;DHT22;1975;49.356;6.816;2023-03-01T18:15:55;5.10;99.90
3921;DHT22;1975;49.356;6.816;2023-03-01T18:18:26;5.10;99.90
3921;DHT22;1975;49.356;6.816;2023-03-01T18:20:54;5.10;99.90